Time;durP1;ratioP1;P1;durP2;ratioP2;P2;SDS_P1;SDS_P2;PMS_P1;PMS_P2;Temp;Humidity;BMP_temperature;BMP_pressure;BME280_temperature;BME280_humidity;BME280_pressure;Samples;Min_cycle;Max_cycle;Signal;HPM_P1;HPM_P2
2022/05/03 00:01:02;;;;;;;;;;;13.00;40.50;;;;;;5068548;28;19920;-89
2022/05/03 00:03:29;;;;;;;;;;;12.90;40.50;;;;;;5063337;28;20323;-89
2022/05/03 00:06:05;;;;;;;;;;;12.80;40.60;;;;;;5073404;28;19912;-88
2022/05/03 00:08:30;;;;;;;;;;;12.80;40.60;;;;;;5064563;28;20280;-88
2022/05/03 00:11:00;;;;;;;;;;;12.70;40.70;;;;;;5056951;28;19923;-88
2022/05/03 00:13:28;;;;;;;;;;;12.70;40.70;;;;;;5074441;28;19932;-88
2022/05/03 00:15:55;;;;;;;;;;;12.60;40.80;;;;;;5055857;28;19923;-88
2022/05/03 00:18:21;;;;;;;;;;;12.60;40.90;;;;;;5055485;28;19924;-89
2022/05/03 00:20:48;;;;;;;;;;;12.50;40.90;;;;;;5062312;28;19992;-89
2022/05/03 00:23:14;;;;;;;;;;;12.50;40.90;;;;;;5053543;28;20432;-89
2022/05/03 00:25:40;;;;;;;;;;;12.40;40.90;;;;;;5063959;28;20013;-89
2022/05/03 00:28:06;;;;;;;;;;;12.40;41.00;;;;;;5072605;28;19920;-89
2022/05/03 00:30:33;;;;;;;;;;;12.40;41.10;;;;;;5073701;28;19920;-88
2022/05/03 00:32:59;;;;;;;;;;;12.30;41.10;;;;;;5048843;28;20383;-88
2022/05/03 00:35:25;;;;;;;;;;;12.30;41.10;;;;;;5057922;28;19916;-88
2022/05/03 00:37:51;;;;;;;;;;;12.20;41.10;;;;;;5070336;28;19917;-88
2022/05/03 00:40:18;;;;;;;;;;;12.20;41.20;;;;;;5053333;28;19912;-88
2022/05/03 00:42:45;;;;;;;;;;;12.20;41.30;;;;;;5072123;28;19916;-88
2022/05/03 00:45:11;;;;;;;;;;;12.10;41.30;;;;;;5071695;28;19920;-89
2022/05/03 00:47:49;;;;;;;;;;;12.10;41.30;;;;;;5065260;28;20361;-88
2022/05/03 00:50:25;;;;;;;;;;;12.00;41.50;;;;;;5053966;28;19912;-88
2022/05/03 00:53:10;;;;;;;;;;;12.00;41.90;;;;;;5050339;28;20435;-88
2022/05/03 00:55:41;;;;;;;;;;;11.90;41.80;;;;;;5073342;28;19919;-88
2022/05/03 00:58:25;;;;;;;;;;;11.80;41.90;;;;;;5068974;28;19916;-88
2022/05/03 01:01:15;;;;;;;;;;;11.80;41.90;;;;;;5065594;28;20028;-89
2022/05/03 01:03:46;;;;;;;;;;;11.70;42.10;;;;;;5044444;28;19987;-88
2022/05/03 01:06:33;;;;;;;;;;;11.70;42.20;;;;;;5055229;28;19916;-89
2022/05/03 01:09:05;;;;;;;;;;;11.70;42.30;;;;;;5055780;28;19923;-89
2022/05/03 01:11:57;;;;;;;;;;;11.70;42.50;;;;;;5054549;28;20022;-88
2022/05/03 01:14:33;;;;;;;;;;;11.50;42.70;;;;;;5063621;28;20012;-88
2022/05/03 01:17:04;;;;;;;;;;;11.50;42.70;;;;;;5052627;28;19912;-88
2022/05/03 01:19:47;;;;;;;;;;;11.50;42.80;;;;;;5071854;28;19916;-89
2022/05/03 01:22:27;;;;;;;;;;;11.50;43.60;;;;;;5073429;28;20372;-88
2022/05/03 01:24:53;;;;;;;;;;;11.40;43.80;;;;;;5068042;28;19963;-88
2022/05/03 01:27:21;;;;;;;;;;;11.40;44.00;;;;;;5070229;28;19913;-89
2022/05/03 01:29:49;;;;;;;;;;;11.30;43.90;;;;;;5072518;28;20382;-89
2022/05/03 01:32:17;;;;;;;;;;;11.30;43.70;;;;;;5064403;28;20372;-88
2022/05/03 01:34:45;;;;;;;;;;;11.20;43.60;;;;;;5049053;28;19912;-88
2022/05/03 01:37:16;;;;;;;;;;;11.20;43.60;;;;;;5054108;28;19912;-88
2022/05/03 01:39:51;;;;;;;;;;;11.10;43.60;;;;;;5056329;28;20228;-89
2022/05/03 01:42:25;;;;;;;;;;;11.10;43.70;;;;;;5071699;28;19999;-88
2022/05/03 01:45:02;;;;;;;;;;;11.10;43.60;;;;;;5075080;28;19912;-89
2022/05/03 01:47:46;;;;;;;;;;;11.10;43.90;;;;;;5081819;28;19921;-89
2022/05/03 01:50:38;;;;;;;;;;;11.00;43.90;;;;;;5057100;28;19919;-88
2022/05/03 01:53:23;;;;;;;;;;;11.00;43.90;;;;;;5054148;28;19936;-88
2022/05/03 01:56:07;;;;;;;;;;;11.00;44.30;;;;;;5071248;28;19934;-89
2022/05/03 01:58:45;;;;;;;;;;;11.00;44.50;;;;;;5072437;28;19917;-87
2022/05/03 02:01:37;;;;;;;;;;;11.00;44.60;;;;;;5074036;28;19912;-87
2022/05/03 02:04:09;;;;;;;;;;;10.90;44.40;;;;;;5069011;28;19925;-88
2022/05/03 02:06:55;;;;;;;;;;;10.90;44.50;;;;;;5072881;28;19983;-88
2022/05/03 02:09:41;;;;;;;;;;;10.90;44.30;;;;;;5073974;28;19974;-88
2022/05/03 02:12:25;;;;;;;;;;;10.90;44.30;;;;;;5052926;28;19913;-88
2022/05/03 02:14:51;;;;;;;;;;;10.90;44.20;;;;;;5071677;28;19962;-88
2022/05/03 02:17:29;;;;;;;;;;;10.80;44.00;;;;;;5067437;28;19954;-88
2022/05/03 02:20:14;;;;;;;;;;;10.80;43.90;;;;;;5063409;28;19917;-88
2022/05/03 02:22:48;;;;;;;;;;;10.80;43.90;;;;;;5065574;28;19929;-88
2022/05/03 02:25:20;;;;;;;;;;;10.80;44.20;;;;;;5055311;28;19920;-85
2022/05/03 02:27:48;;;;;;;;;;;10.70;44.20;;;;;;5068601;28;20391;-87
2022/05/03 02:30:16;;;;;;;;;;;10.70;44.00;;;;;;5053571;28;19951;-84
2022/05/03 02:32:53;;;;;;;;;;;10.70;44.20;;;;;;5069837;28;20011;-85
2022/05/03 02:35:23;;;;;;;;;;;10.70;44.20;;;;;;5067647;28;19962;-85
2022/05/03 02:38:01;;;;;;;;;;;10.60;44.30;;;;;;5054516;28;19917;-86
2022/05/03 02:40:29;;;;;;;;;;;10.70;44.30;;;;;;5073406;28;19912;-85
2022/05/03 02:42:58;;;;;;;;;;;10.50;44.40;;;;;;5072618;28;19955;-85
2022/05/03 02:45:24;;;;;;;;;;;10.60;44.90;;;;;;5054460;28;19950;-85
2022/05/03 02:48:13;;;;;;;;;;;10.50;44.80;;;;;;5056731;28;20074;-85
2022/05/03 02:50:50;;;;;;;;;;;10.50;44.80;;;;;;5082551;28;20268;-85
2022/05/03 02:53:16;;;;;;;;;;;10.50;44.90;;;;;;5076299;28;19916;-84
2022/05/03 02:55:41;;;;;;;;;;;10.50;44.90;;;;;;5075417;28;19912;-85
2022/05/03 02:58:17;;;;;;;;;;;10.50;44.80;;;;;;5054129;28;19923;-85
2022/05/03 03:03:44;;;;;;;;;;;10.60;45.00;;;;;;5075095;28;19974;-86
2022/05/03 03:06:19;;;;;;;;;;;10.50;44.80;;;;;;5063086;28;19943;-86
2022/05/03 03:08:45;;;;;;;;;;;10.50;44.50;;;;;;5057924;28;20391;-86
2022/05/03 03:11:15;;;;;;;;;;;10.50;44.40;;;;;;5074167;28;19919;-86
2022/05/03 03:13:41;;;;;;;;;;;10.40;44.30;;;;;;5051322;28;20048;-85
2022/05/03 03:16:09;;;;;;;;;;;10.40;44.30;;;;;;5057326;28;20363;-85
2022/05/03 03:18:36;;;;;;;;;;;10.30;44.20;;;;;;5057181;28;19921;-85
2022/05/03 03:21:06;;;;;;;;;;;10.30;44.20;;;;;;5056347;28;19994;-85
2022/05/03 03:23:31;;;;;;;;;;;10.30;44.10;;;;;;5073635;28;19928;-85
2022/05/03 03:25:57;;;;;;;;;;;10.20;44.20;;;;;;5057149;28;19912;-85
2022/05/03 03:28:23;;;;;;;;;;;10.20;44.10;;;;;;5055153;28;20003;-85
2022/05/03 03:30:49;;;;;;;;;;;10.20;44.20;;;;;;5072818;28;19912;-85
2022/05/03 03:33:17;;;;;;;;;;;10.10;44.30;;;;;;5075385;28;19917;-85
2022/05/03 03:35:44;;;;;;;;;;;10.10;44.30;;;;;;5061449;28;19912;-87
2022/05/03 03:38:10;;;;;;;;;;;10.10;44.30;;;;;;5059802;28;19944;-86
2022/05/03 03:40:35;;;;;;;;;;;10.00;44.30;;;;;;5056642;28;19913;-86
2022/05/03 03:43:01;;;;;;;;;;;10.00;44.30;;;;;;5067030;28;19936;-86
2022/05/03 03:45:27;;;;;;;;;;;10.00;44.40;;;;;;5072174;28;19963;-86
2022/05/03 03:47:53;;;;;;;;;;;10.00;44.40;;;;;;5055766;28;20003;-86
2022/05/03 03:50:19;;;;;;;;;;;10.00;44.50;;;;;;5056575;28;19916;-86
2022/05/03 03:52:46;;;;;;;;;;;10.00;44.50;;;;;;5072902;28;20352;-85
2022/05/03 03:55:12;;;;;;;;;;;10.00;44.70;;;;;;5061546;28;20039;-84
2022/05/03 03:57:38;;;;;;;;;;;10.00;45.00;;;;;;5056040;28;20295;-84
2022/05/03 04:00:05;;;;;;;;;;;10.00;45.10;;;;;;5075257;28;19927;-84
2022/05/03 04:02:31;;;;;;;;;;;10.00;45.10;;;;;;5075777;28;19920;-87
2022/05/03 04:04:57;;;;;;;;;;;9.90;45.10;;;;;;5075309;28;19909;-85
2022/05/03 04:07:23;;;;;;;;;;;9.90;45.10;;;;;;5057175;28;19933;-85
2022/05/03 04:09:48;;;;;;;;;;;10.00;45.20;;;;;;5057322;28;20320;-85
2022/05/03 04:12:14;;;;;;;;;;;10.00;45.40;;;;;;5056820;28;19923;-85
2022/05/03 04:14:40;;;;;;;;;;;10.10;45.60;;;;;;5057539;28;19943;-86
2022/05/03 04:17:05;;;;;;;;;;;10.20;45.90;;;;;;5053496;28;19974;-87
2022/05/03 04:19:31;;;;;;;;;;;10.30;46.30;;;;;;5055800;28;19916;-86
2022/05/03 04:22:12;;;;;;;;;;;10.50;46.50;;;;;;5049710;28;19932;-87
2022/05/03 04:24:38;;;;;;;;;;;10.60;46.70;;;;;;5051618;28;19925;-86
2022/05/03 04:27:04;;;;;;;;;;;10.80;46.80;;;;;;5075296;28;19942;-86
2022/05/03 04:29:29;;;;;;;;;;;11.00;46.80;;;;;;5075363;28;19909;-85
2022/05/03 04:31:55;;;;;;;;;;;11.30;47.00;;;;;;5053908;28;19939;-86
2022/05/03 04:34:20;;;;;;;;;;;11.50;47.10;;;;;;5068417;28;19923;-85
2022/05/03 04:36:46;;;;;;;;;;;11.80;47.30;;;;;;5055736;28;19919;-86
2022/05/03 04:39:11;;;;;;;;;;;12.00;47.40;;;;;;5073462;28;19967;-86
2022/05/03 04:41:37;;;;;;;;;;;12.40;47.40;;;;;;5074805;28;19920;-86
2022/05/03 04:44:02;;;;;;;;;;;12.70;47.40;;;;;;5056000;28;19916;-87
2022/05/03 04:46:27;;;;;;;;;;;13.00;47.20;;;;;;5073941;28;19916;-86
2022/05/03 04:48:53;;;;;;;;;;;13.30;47.20;;;;;;5075111;28;19920;-87
2022/05/03 04:51:19;;;;;;;;;;;13.70;47.10;;;;;;5055289;28;19923;-86
2022/05/03 04:53:45;;;;;;;;;;;14.10;46.90;;;;;;5055531;28;19917;-87
2022/05/03 04:56:20;;;;;;;;;;;14.40;46.70;;;;;;5073356;28;20323;-87
2022/05/03 04:58:47;;;;;;;;;;;14.80;46.40;;;;;;5071973;28;20021;-86
2022/05/03 05:01:12;;;;;;;;;;;15.20;46.10;;;;;;5052860;28;19924;-87
2022/05/03 05:03:38;;;;;;;;;;;15.50;45.70;;;;;;5067800;28;20064;-86
2022/05/03 05:06:04;;;;;;;;;;;15.80;45.50;;;;;;5074654;28;19916;-86
2022/05/03 05:08:29;;;;;;;;;;;16.30;45.30;;;;;;5060443;28;19923;-87
2022/05/03 05:10:54;;;;;;;;;;;16.70;45.00;;;;;;5073225;28;20272;-86
2022/05/03 05:13:20;;;;;;;;;;;17.00;44.50;;;;;;5069096;28;20308;-86
2022/05/03 05:15:46;;;;;;;;;;;17.50;44.10;;;;;;5075009;28;19979;-87
2022/05/03 05:18:13;;;;;;;;;;;17.80;43.50;;;;;;5062909;28;19947;-86
2022/05/03 05:20:38;;;;;;;;;;;18.30;42.80;;;;;;5074325;28;19975;-87
2022/05/03 05:23:04;;;;;;;;;;;18.60;42.30;;;;;;5074452;28;20332;-87
2022/05/03 05:25:29;;;;;;;;;;;18.90;41.80;;;;;;5054479;28;20429;-88
2022/05/03 05:27:55;;;;;;;;;;;19.30;41.40;;;;;;5063009;28;19924;-87
2022/05/03 05:30:20;;;;;;;;;;;19.70;41.00;;;;;;5071780;28;19932;-88
2022/05/03 05:32:46;;;;;;;;;;;20.10;40.60;;;;;;5071300;28;19920;-87
2022/05/03 05:35:12;;;;;;;;;;;20.60;40.20;;;;;;5059645;28;19995;-88
2022/05/03 05:37:37;;;;;;;;;;;21.10;39.80;;;;;;5062476;28;20356;-87
2022/05/03 05:40:03;;;;;;;;;;;21.60;39.20;;;;;;5071115;28;19932;-88
2022/05/03 05:42:29;;;;;;;;;;;22.00;38.50;;;;;;5062146;28;19947;-88
2022/05/03 05:44:55;;;;;;;;;;;22.50;37.40;;;;;;5059101;28;19913;-87
2022/05/03 05:47:20;;;;;;;;;;;22.90;36.50;;;;;;5057343;28;19925;-87
2022/05/03 05:49:46;;;;;;;;;;;23.40;35.60;;;;;;5057568;28;19955;-87
2022/05/03 05:54:55;;;;;;;;;;;24.20;33.70;;;;;;5059907;28;20008;-88
2022/05/03 05:57:21;;;;;;;;;;;24.60;32.60;;;;;;5066288;28;19948;-88
2022/05/03 05:59:47;;;;;;;;;;;24.90;31.70;;;;;;5071075;28;19919;-87
2022/05/03 06:02:12;;;;;;;;;;;25.20;31.10;;;;;;5060873;28;19947;-88
2022/05/03 06:04:37;;;;;;;;;;;25.50;30.70;;;;;;5066373;28;20334;-87
2022/05/03 06:07:03;;;;;;;;;;;25.80;30.20;;;;;;5059893;28;19971;-87
2022/05/03 06:09:28;;;;;;;;;;;26.10;30.10;;;;;;5070183;28;19978;-87
2022/05/03 06:11:54;;;;;;;;;;;26.50;30.00;;;;;;5073068;28;20310;-87
2022/05/03 06:14:19;;;;;;;;;;;26.80;29.40;;;;;;5066699;28;19932;-88
2022/05/03 06:16:52;;;;;;;;;;;27.10;27.80;;;;;;5071455;28;19919;-87
2022/05/03 06:19:18;;;;;;;;;;;27.30;26.80;;;;;;5066216;28;19916;-88
2022/05/03 06:21:43;;;;;;;;;;;27.50;27.20;;;;;;5071064;28;20049;-88
2022/05/03 06:24:09;;;;;;;;;;;27.80;26.00;;;;;;5060892;28;19927;-88
2022/05/03 06:26:35;;;;;;;;;;;27.90;24.40;;;;;;5071502;28;20287;-86
2022/05/03 06:29:01;;;;;;;;;;;28.00;23.40;;;;;;5073571;28;19916;-86
2022/05/03 06:31:28;;;;;;;;;;;28.00;23.00;;;;;;5070422;28;20356;-86
2022/05/03 06:33:54;;;;;;;;;;;28.10;23.20;;;;;;5076092;28;19921;-88
2022/05/03 06:36:19;;;;;;;;;;;28.30;23.20;;;;;;5076689;28;19923;-87
2022/05/03 06:38:45;;;;;;;;;;;28.40;21.80;;;;;;5076624;28;19924;-86
2022/05/03 06:41:12;;;;;;;;;;;28.50;21.70;;;;;;5076249;28;20571;-87
2022/05/03 06:43:37;;;;;;;;;;;28.70;21.80;;;;;;5076646;28;20003;-86
2022/05/03 06:46:03;;;;;;;;;;;28.90;22.10;;;;;;5064166;28;19963;-86
2022/05/03 06:48:28;;;;;;;;;;;29.30;22.20;;;;;;5066258;28;19966;-88
2022/05/03 06:50:54;;;;;;;;;;;29.60;22.20;;;;;;5071059;28;19995;-87
2022/05/03 06:53:19;;;;;;;;;;;29.80;22.30;;;;;;5076142;28;20007;-87
2022/05/03 06:55:45;;;;;;;;;;;30.10;21.40;;;;;;5063776;28;19970;-86
2022/05/03 06:58:10;;;;;;;;;;;30.20;20.40;;;;;;5067621;28;20050;-86
2022/05/03 07:00:36;;;;;;;;;;;30.10;19.40;;;;;;5067905;28;19912;-87
2022/05/03 07:03:01;;;;;;;;;;;30.10;19.20;;;;;;5069210;28;19947;-86
2022/05/03 07:05:27;;;;;;;;;;;30.10;19.00;;;;;;5073742;28;19920;-88
2022/05/03 07:07:52;;;;;;;;;;;30.20;18.80;;;;;;5074260;28;19923;-86
2022/05/03 07:10:18;;;;;;;;;;;30.20;18.60;;;;;;5074628;28;19991;-86
2022/05/03 07:12:45;;;;;;;;;;;30.30;18.50;;;;;;5071266;28;19924;-87
2022/05/03 07:15:10;;;;;;;;;;;30.30;18.50;;;;;;5073369;28;20311;-86
2022/05/03 07:23:06;;;;;;;;;;;31.30;18.10;;;;;;5071762;28;19935;-87
2022/05/03 07:25:32;;;;;;;;;;;31.50;17.90;;;;;;5058937;28;19917;-87
2022/05/03 07:27:58;;;;;;;;;;;31.80;17.90;;;;;;5074150;28;19923;-87
2022/05/03 07:30:24;;;;;;;;;;;32.00;17.60;;;;;;5066337;28;20287;-87
2022/05/03 07:32:49;;;;;;;;;;;32.20;17.10;;;;;;5064661;28;19924;-87
2022/05/03 07:35:15;;;;;;;;;;;32.30;16.60;;;;;;5062059;28;19916;-87
2022/05/03 07:37:40;;;;;;;;;;;32.30;16.10;;;;;;5060129;28;19920;-87
2022/05/03 07:40:07;;;;;;;;;;;32.30;14.90;;;;;;5058864;28;19935;-88
2022/05/03 07:42:32;;;;;;;;;;;32.20;15.10;;;;;;5071234;28;19954;-87
2022/05/03 07:44:58;;;;;;;;;;;32.10;15.30;;;;;;5055503;28;19939;-87
2022/05/03 07:47:23;;;;;;;;;;;32.20;15.70;;;;;;5071547;28;20316;-87
2022/05/03 07:49:49;;;;;;;;;;;32.10;15.10;;;;;;5070172;28;20376;-87
2022/05/03 07:52:14;;;;;;;;;;;32.00;15.00;;;;;;5060291;28;19921;-87
2022/05/03 07:54:41;;;;;;;;;;;32.00;15.00;;;;;;5058833;28;20459;-87
2022/05/03 07:57:06;;;;;;;;;;;32.30;15.20;;;;;;5071149;28;19916;-87
2022/05/03 07:59:33;;;;;;;;;;;32.50;14.90;;;;;;5067628;28;19920;-87
2022/05/03 08:01:59;;;;;;;;;;;32.60;14.70;;;;;;5057371;28;20542;-87
2022/05/03 08:04:24;;;;;;;;;;;32.70;14.70;;;;;;5071771;28;20287;-87
2022/05/03 08:06:50;;;;;;;;;;;32.70;14.60;;;;;;5062225;28;19917;-87
2022/05/03 08:09:16;;;;;;;;;;;32.70;14.40;;;;;;5058910;28;19919;-87
2022/05/03 08:11:41;;;;;;;;;;;32.70;14.30;;;;;;5062614;28;19920;-87
2022/05/03 08:14:07;;;;;;;;;;;32.60;14.60;;;;;;5072172;28;19923;-86
2022/05/03 08:16:32;;;;;;;;;;;32.80;14.90;;;;;;5071420;28;19921;-87
2022/05/03 08:18:58;;;;;;;;;;;32.90;14.60;;;;;;5071061;28;19993;-87
2022/05/03 08:21:23;;;;;;;;;;;33.00;14.60;;;;;;5061777;28;20007;-87
2022/05/03 08:23:49;;;;;;;;;;;33.10;14.80;;;;;;5061542;28;19919;-87
2022/05/03 08:26:15;;;;;;;;;;;33.20;14.80;;;;;;5057302;28;19921;-87
2022/05/03 08:28:41;;;;;;;;;;;33.30;15.00;;;;;;5068244;28;20291;-87
2022/05/03 08:31:07;;;;;;;;;;;33.60;14.50;;;;;;5073118;28;19916;-87
2022/05/03 08:33:34;;;;;;;;;;;33.70;14.60;;;;;;5067026;28;19954;-87
2022/05/03 08:36:00;;;;;;;;;;;33.90;14.70;;;;;;5073316;28;19921;-88
2022/05/03 08:43:54;;;;;;;;;;;34.10;13.70;;;;;;5068179;28;19966;-87
2022/05/03 08:46:20;;;;;;;;;;;34.00;14.10;;;;;;5073081;28;19916;-87
2022/05/03 08:48:46;;;;;;;;;;;34.00;14.30;;;;;;5063267;28;19991;-87
2022/05/03 08:51:14;;;;;;;;;;;34.10;14.40;;;;;;5062855;28;19951;-88
2022/05/03 08:53:40;;;;;;;;;;;34.20;14.20;;;;;;5060223;28;19922;-87
2022/05/03 08:56:06;;;;;;;;;;;34.10;14.20;;;;;;5061547;28;19920;-87
2022/05/03 08:58:31;;;;;;;;;;;34.20;14.30;;;;;;5056911;28;19920;-88
2022/05/03 09:00:57;;;;;;;;;;;34.40;14.30;;;;;;5063968;28;19924;-88
2022/05/03 09:03:22;;;;;;;;;;;34.60;13.90;;;;;;5071425;28;19924;-88
2022/05/03 09:05:48;;;;;;;;;;;34.70;13.90;;;;;;5064718;28;19924;-88
2022/05/03 09:08:20;;;;;;;;;;;34.70;13.80;;;;;;5071422;28;19924;-88
2022/05/03 09:10:46;;;;;;;;;;;34.80;13.90;;;;;;5063793;28;19935;-87
2022/05/03 09:13:14;;;;;;;;;;;34.90;14.00;;;;;;5070939;28;19912;-88
2022/05/03 09:15:40;;;;;;;;;;;35.10;13.70;;;;;;5070541;28;19931;-87
2022/05/03 09:18:05;;;;;;;;;;;35.30;13.80;;;;;;5058205;28;20039;-88
2022/05/03 09:26:21;;;;;;;;;;;36.00;13.80;;;;;;5061611;28;19942;-88
2022/05/03 09:28:53;;;;;;;;;;;36.20;13.20;;;;;;5057526;28;19916;-88
2022/05/03 09:31:26;;;;;;;;;;;36.10;13.00;;;;;;5057066;28;19956;-87
2022/05/03 09:33:52;;;;;;;;;;;36.10;13.20;;;;;;5058428;28;19936;-87
2022/05/03 09:36:17;;;;;;;;;;;36.20;13.50;;;;;;5071013;28;19916;-86
2022/05/03 09:38:50;;;;;;;;;;;36.40;13.40;;;;;;5057009;28;20015;-89
2022/05/03 09:41:16;;;;;;;;;;;36.70;13.50;;;;;;5056813;28;19920;-87
2022/05/03 09:44:00;;;;;;;;;;;36.60;13.10;;;;;;5062574;28;20429;-87
2022/05/03 09:46:26;;;;;;;;;;;36.50;13.30;;;;;;5057920;28;20515;-87
2022/05/03 09:48:52;;;;;;;;;;;36.70;13.40;;;;;;5072351;28;20027;-88
2022/05/03 09:51:18;;;;;;;;;;;36.80;13.00;;;;;;5063359;28;19920;-87
2022/05/03 09:53:54;;;;;;;;;;;36.80;13.00;;;;;;5057581;28;19973;-87
2022/05/03 09:56:22;;;;;;;;;;;37.00;13.10;;;;;;5067173;28;20384;-88
2022/05/03 09:58:48;;;;;;;;;;;37.20;13.20;;;;;;5074579;28;20363;-88
2022/05/03 10:01:14;;;;;;;;;;;37.20;13.00;;;;;;5067211;28;19959;-86
2022/05/03 10:03:39;;;;;;;;;;;37.20;12.80;;;;;;5071160;28;19921;-86
2022/05/03 10:06:05;;;;;;;;;;;36.80;12.90;;;;;;5074725;28;19962;-86
2022/05/03 10:08:34;;;;;;;;;;;36.70;13.20;;;;;;5071205;28;19998;-86
2022/05/03 10:11:00;;;;;;;;;;;36.80;13.50;;;;;;5067034;28;20288;-87
2022/05/03 10:13:26;;;;;;;;;;;37.20;13.80;;;;;;5062314;28;19916;-86
2022/05/03 10:21:28;;;;;;;;;;;37.80;13.30;;;;;;5068023;28;20375;-87
2022/05/03 10:24:04;;;;;;;;;;;38.00;13.40;;;;;;5061577;28;20012;-87
2022/05/03 10:26:48;;;;;;;;;;;38.30;13.60;;;;;;5067694;28;19916;-87
2022/05/03 10:29:14;;;;;;;;;;;38.60;13.50;;;;;;5075592;28;19924;-87
2022/05/03 10:31:57;;;;;;;;;;;38.80;13.00;;;;;;5073919;28;19987;-87
2022/05/03 10:34:41;;;;;;;;;;;38.40;13.00;;;;;;5063267;28;19917;-87
2022/05/03 10:37:11;;;;;;;;;;;38.30;13.10;;;;;;5082489;28;19919;-88
2022/05/03 10:39:57;;;;;;;;;;;38.40;13.50;;;;;;5071293;28;19982;-86
2022/05/03 10:42:30;;;;;;;;;;;38.70;13.60;;;;;;5072035;28;19920;-87
2022/05/03 10:44:56;;;;;;;;;;;38.70;12.90;;;;;;5068071;28;19923;-86
2022/05/03 10:47:44;;;;;;;;;;;38.50;13.20;;;;;;5059590;28;20279;-88
2022/05/03 10:50:12;;;;;;;;;;;38.30;13.30;;;;;;5072722;28;20651;-87
2022/05/03 10:52:56;;;;;;;;;;;38.30;13.70;;;;;;5063343;28;19912;-87
2022/05/03 10:55:22;;;;;;;;;;;38.40;13.70;;;;;;5072049;28;19928;-87
2022/05/03 10:58:06;;;;;;;;;;;38.30;13.60;;;;;;5073412;28;19947;-87
2022/05/03 11:00:58;;;;;;;;;;;38.40;13.80;;;;;;5068313;28;20439;-88
2022/05/03 11:03:23;;;;;;;;;;;38.70;13.60;;;;;;5072392;28;19934;-88
2022/05/03 11:06:07;;;;;;;;;;;38.70;13.50;;;;;;5073149;28;19920;-87
2022/05/03 11:08:33;;;;;;;;;;;38.90;13.60;;;;;;5073783;28;20383;-87
2022/05/03 11:10:58;;;;;;;;;;;39.10;13.50;;;;;;5073995;28;19979;-87
2022/05/03 11:13:40;;;;;;;;;;;39.00;13.40;;;;;;5073683;28;19923;-86
2022/05/03 11:16:18;;;;;;;;;;;38.70;13.50;;;;;;5064432;28;19916;-87
2022/05/03 11:18:44;;;;;;;;;;;38.50;13.70;;;;;;5076692;28;19923;-87
2022/05/03 11:21:13;;;;;;;;;;;38.60;13.90;;;;;;5073849;28;20334;-87
2022/05/03 11:23:54;;;;;;;;;;;38.50;13.70;;;;;;5073669;28;20380;-87
2022/05/03 11:26:20;;;;;;;;;;;38.30;13.80;;;;;;5073572;28;20011;-88
2022/05/03 11:28:47;;;;;;;;;;;38.20;13.90;;;;;;5070869;28;19916;-87
2022/05/03 11:31:15;;;;;;;;;;;37.80;14.00;;;;;;5060701;28;20367;-87
2022/05/03 11:33:47;;;;;;;;;;;37.80;14.20;;;;;;5058913;28;19975;-87
2022/05/03 11:36:12;;;;;;;;;;;37.70;14.20;;;;;;5073128;28;19939;-87
2022/05/03 11:38:38;;;;;;;;;;;37.70;14.20;;;;;;5073440;28;19917;-87
2022/05/03 11:41:05;;;;;;;;;;;37.80;14.20;;;;;;5072850;28;19916;-87
2022/05/03 11:43:33;;;;;;;;;;;38.00;14.10;;;;;;5057348;28;19977;-88
2022/05/03 11:45:59;;;;;;;;;;;37.90;14.10;;;;;;5073037;28;19924;-87
2022/05/03 11:48:25;;;;;;;;;;;37.70;14.50;;;;;;5070619;28;19916;-87
2022/05/03 11:56:26;;;;;;;;;;;37.60;14.30;;;;;;5071096;28;20036;-87
2022/05/03 11:58:52;;;;;;;;;;;37.60;14.30;;;;;;5069086;28;19927;-86
2022/05/03 12:01:18;;;;;;;;;;;37.70;14.30;;;;;;5072050;28;20311;-87
2022/05/03 12:03:58;;;;;;;;;;;37.70;14.00;;;;;;5062371;28;20651;-86
2022/05/03 12:06:32;;;;;;;;;;;37.30;14.40;;;;;;5072267;28;20296;-87
2022/05/03 12:08:57;;;;;;;;;;;37.00;14.70;;;;;;5072220;28;19912;-87
2022/05/03 12:11:24;;;;;;;;;;;37.20;14.80;;;;;;5072559;28;20372;-86
2022/05/03 12:13:50;;;;;;;;;;;37.50;14.90;;;;;;5065796;28;19921;-86
2022/05/03 12:16:19;;;;;;;;;;;37.80;14.70;;;;;;5069958;28;19912;-86
2022/05/03 12:18:48;;;;;;;;;;;37.80;14.60;;;;;;5060929;28;19948;-87
2022/05/03 12:21:28;;;;;;;;;;;37.70;14.70;;;;;;5062734;28;19933;-87
2022/05/03 12:24:01;;;;;;;;;;;37.50;14.40;;;;;;5056369;28;19916;-86
2022/05/03 12:26:35;;;;;;;;;;;37.20;14.60;;;;;;5065920;28;19923;-87
2022/05/03 12:29:01;;;;;;;;;;;37.00;14.90;;;;;;5062583;28;19917;-87
2022/05/03 12:31:30;;;;;;;;;;;37.00;14.80;;;;;;5071858;28;19962;-87
2022/05/03 12:33:56;;;;;;;;;;;36.50;15.00;;;;;;5051032;28;19909;-87
2022/05/03 12:36:28;;;;;;;;;;;36.50;15.20;;;;;;5071641;28;19931;-87
2022/05/03 12:38:53;;;;;;;;;;;36.60;15.30;;;;;;5059331;28;19912;-87
2022/05/03 12:41:25;;;;;;;;;;;36.70;15.30;;;;;;5072727;28;20386;-87
2022/05/03 12:43:59;;;;;;;;;;;36.70;15.40;;;;;;5059167;28;19927;-86
2022/05/03 12:46:28;;;;;;;;;;;36.70;15.10;;;;;;5070197;28;20237;-87
2022/05/03 12:48:54;;;;;;;;;;;36.80;15.30;;;;;;5068399;28;19909;-86
2022/05/03 12:51:20;;;;;;;;;;;37.00;15.30;;;;;;5072082;28;19920;-87
2022/05/03 12:53:47;;;;;;;;;;;37.20;15.30;;;;;;5064993;28;19923;-87
2022/05/03 12:59:14;;;;;;;;;;;37.00;15.50;;;;;;5021717;28;20407;-87
2022/05/03 13:01:45;;;;;;;;;;;37.30;15.50;;;;;;5047555;28;19924;-86
2022/05/03 13:04:12;;;;;;;;;;;37.40;15.50;;;;;;5068004;28;19916;-87
2022/05/03 13:06:38;;;;;;;;;;;37.70;15.30;;;;;;5059062;28;19917;-86
2022/05/03 13:09:03;;;;;;;;;;;37.50;15.00;;;;;;5060955;28;19913;-87
2022/05/03 13:11:34;;;;;;;;;;;37.20;15.00;;;;;;5071113;28;19967;-86
2022/05/03 13:13:59;;;;;;;;;;;36.80;15.20;;;;;;5055929;28;20387;-86
2022/05/03 13:16:25;;;;;;;;;;;36.30;15.50;;;;;;5067657;28;19917;-86
2022/05/03 13:18:50;;;;;;;;;;;36.10;15.50;;;;;;5062452;28;20323;-86
2022/05/03 13:21:16;;;;;;;;;;;35.90;15.70;;;;;;5065370;28;19927;-86
2022/05/03 13:23:41;;;;;;;;;;;35.80;15.70;;;;;;5065209;28;19987;-86
2022/05/03 13:26:07;;;;;;;;;;;35.10;16.00;;;;;;5071047;28;19912;-86
2022/05/03 13:28:32;;;;;;;;;;;34.20;16.60;;;;;;5070185;28;19920;-87
2022/05/03 13:30:58;;;;;;;;;;;34.10;17.10;;;;;;5070761;28;19912;-86
2022/05/03 13:33:23;;;;;;;;;;;34.70;16.80;;;;;;5061600;28;20027;-86
2022/05/03 13:41:19;;;;;;;;;;;32.60;17.50;;;;;;5068469;28;19962;-85
2022/05/03 13:43:46;;;;;;;;;;;32.10;18.10;;;;;;5070794;28;19932;-87
2022/05/03 13:46:12;;;;;;;;;;;32.40;18.10;;;;;;5060706;28;19917;-87
2022/05/03 13:48:37;;;;;;;;;;;32.90;17.80;;;;;;5055125;28;19923;-87
2022/05/03 13:51:04;;;;;;;;;;;33.40;17.60;;;;;;5070528;28;19917;-87
2022/05/03 13:53:30;;;;;;;;;;;33.40;17.80;;;;;;5060412;28;19938;-87
2022/05/03 13:55:55;;;;;;;;;;;33.30;17.90;;;;;;5063298;28;19951;-88
2022/05/03 13:58:22;;;;;;;;;;;33.20;18.00;;;;;;5060339;28;19912;-87
2022/05/03 14:00:47;;;;;;;;;;;33.00;18.10;;;;;;5056000;28;19920;-87
2022/05/03 14:03:14;;;;;;;;;;;32.80;18.30;;;;;;5063056;28;19920;-87
2022/05/03 14:05:40;;;;;;;;;;;32.40;18.70;;;;;;5057193;28;19999;-87
2022/05/03 14:08:09;;;;;;;;;;;32.00;19.10;;;;;;5059210;28;20042;-87
2022/05/03 14:10:35;;;;;;;;;;;31.40;19.60;;;;;;5070083;28;19971;-87
2022/05/03 14:13:00;;;;;;;;;;;30.80;20.30;;;;;;5069758;28;20406;-87
2022/05/03 14:15:26;;;;;;;;;;;30.20;20.70;;;;;;5070387;28;19923;-87
2022/05/03 14:17:51;;;;;;;;;;;29.60;21.40;;;;;;5069766;28;19940;-86
2022/05/03 14:20:16;;;;;;;;;;;29.20;21.90;;;;;;5060100;28;20276;-87
2022/05/03 14:22:42;;;;;;;;;;;28.80;22.30;;;;;;5069413;28;19924;-87
2022/05/03 14:25:10;;;;;;;;;;;28.60;22.70;;;;;;5067097;28;20007;-87
2022/05/03 14:27:36;;;;;;;;;;;28.40;22.80;;;;;;5059121;28;19916;-88
2022/05/03 14:30:02;;;;;;;;;;;28.20;22.90;;;;;;5069958;28;19912;-86
2022/05/03 14:32:28;;;;;;;;;;;28.10;23.10;;;;;;5070480;28;19916;-88
2022/05/03 14:34:54;;;;;;;;;;;28.00;23.40;;;;;;5069732;28;19928;-88
2022/05/03 14:37:20;;;;;;;;;;;27.90;23.60;;;;;;5069131;28;19931;-87
2022/05/03 14:39:45;;;;;;;;;;;27.70;23.70;;;;;;5050838;28;20434;-88
2022/05/03 14:42:11;;;;;;;;;;;27.50;23.90;;;;;;5059079;28;19932;-87
2022/05/03 14:44:36;;;;;;;;;;;27.50;23.90;;;;;;5054744;28;19923;-87
2022/05/03 14:47:02;;;;;;;;;;;27.40;24.10;;;;;;5056813;28;19917;-86
2022/05/03 14:49:28;;;;;;;;;;;27.30;24.10;;;;;;5072402;28;19920;-87
2022/05/03 14:51:54;;;;;;;;;;;27.20;24.20;;;;;;5054638;28;20374;-88
2022/05/03 14:54:20;;;;;;;;;;;27.20;24.40;;;;;;5073258;28;19920;-88
2022/05/03 15:04:59;;;;;;;;;;;27.00;24.70;;;;;;5073274;28;19951;-87
2022/05/03 15:07:24;;;;;;;;;;;27.00;24.90;;;;;;5055002;28;20348;-87
2022/05/03 15:09:50;;;;;;;;;;;27.00;24.90;;;;;;5054991;28;19923;-88
2022/05/03 15:12:15;;;;;;;;;;;27.00;25.10;;;;;;5072900;28;20014;-87
2022/05/03 15:14:41;;;;;;;;;;;27.00;25.00;;;;;;5072629;28;20591;-87